createdAt,value
2018-09-06T00:00:52.035Z,23.80
2018-09-06T00:03:20.217Z,23.80
2018-09-06T00:05:48.601Z,23.67
2018-09-06T00:08:16.718Z,25.57
2018-09-06T00:10:45.145Z,23.90
2018-09-06T00:13:13.209Z,24.50
2018-09-06T00:15:41.669Z,24.13
2018-09-06T00:18:09.850Z,24.60
2018-09-06T00:20:38.001Z,26.57
2018-09-06T00:23:06.431Z,24.53
2018-09-06T00:25:34.899Z,24.97
2018-09-06T00:28:03.305Z,25.13
2018-09-06T00:30:31.422Z,25.93
2018-09-06T00:32:59.614Z,24.33
2018-09-06T00:35:27.683Z,25.90
2018-09-06T00:37:55.917Z,23.60
2018-09-06T00:40:24.009Z,26.90
2018-09-06T00:42:52.185Z,26.83
2018-09-06T00:45:20.605Z,25.57
2018-09-06T00:47:48.718Z,27.10
2018-09-06T00:50:18.239Z,25.43
2018-09-06T00:52:48.096Z,25.27
2018-09-06T00:55:16.357Z,24.93
2018-09-06T00:57:44.505Z,23.00
2018-09-06T01:00:12.685Z,25.53
2018-09-06T01:02:40.760Z,25.47
2018-09-06T01:05:08.855Z,25.40
2018-09-06T01:07:37.200Z,24.50
2018-09-06T01:10:05.849Z,24.77
2018-09-06T01:12:34.008Z,24.73
2018-09-06T01:15:02.089Z,25.63
2018-09-06T01:17:30.255Z,24.77
2018-09-06T01:19:58.380Z,24.40
2018-09-06T01:22:26.497Z,24.60
2018-09-06T01:24:54.998Z,24.67
2018-09-06T01:27:23.094Z,24.00
2018-09-06T01:29:51.143Z,25.40
2018-09-06T01:32:19.363Z,24.17
2018-09-06T01:34:47.417Z,24.80
2018-09-06T01:37:15.504Z,23.97
2018-09-06T01:39:43.576Z,23.67
2018-09-06T01:42:11.764Z,23.83
2018-09-06T01:44:39.933Z,25.30
2018-09-06T01:47:08.005Z,24.40
2018-09-06T01:49:36.098Z,24.80
2018-09-06T01:52:04.521Z,25.20
2018-09-06T01:54:32.833Z,24.80
2018-09-06T01:57:01.018Z,23.70
2018-09-06T01:59:34.547Z,27.23
2018-09-06T02:02:02.756Z,26.40
2018-09-06T02:04:30.892Z,25.97
2018-09-06T02:06:59.072Z,26.40
2018-09-06T02:09:27.133Z,25.50
2018-09-06T02:11:55.195Z,25.80
2018-09-06T02:14:23.316Z,24.67
2018-09-06T02:16:51.433Z,25.30
2018-09-06T02:19:19.605Z,27.90
2018-09-06T02:21:47.751Z,23.87
2018-09-06T02:24:15.813Z,25.77
2018-09-06T02:26:44.075Z,26.10
2018-09-06T02:29:12.228Z,28.47
2018-09-06T02:31:40.303Z,25.20
2018-09-06T02:34:08.937Z,26.37
2018-09-06T02:36:37.061Z,25.20
2018-09-06T02:39:06.186Z,26.83
2018-09-06T02:41:34.232Z,25.80
2018-09-06T02:44:02.288Z,26.17
2018-09-06T02:46:30.364Z,26.20
2018-09-06T02:48:58.606Z,26.70
2018-09-06T02:51:26.683Z,26.17
2018-09-06T02:53:54.812Z,25.70
2018-09-06T02:56:23.061Z,25.50
2018-09-06T02:58:51.236Z,25.47
2018-09-06T03:01:19.308Z,26.10
2018-09-06T03:03:47.385Z,25.83
2018-09-06T03:06:15.552Z,23.23
2018-09-06T03:08:44.070Z,26.30
2018-09-06T03:11:17.336Z,26.73
2018-09-06T03:13:45.512Z,26.40
2018-09-06T03:16:13.624Z,26.97
2018-09-06T03:18:41.844Z,23.47
2018-09-06T03:21:10.037Z,26.67
2018-09-06T03:23:38.116Z,27.63
2018-09-06T03:26:10.496Z,25.50
2018-09-06T03:28:38.774Z,25.37
2018-09-06T03:31:06.865Z,24.67
2018-09-06T03:33:35.000Z,25.40
2018-09-06T03:36:03.273Z,27.80
2018-09-06T03:38:31.545Z,25.07
2018-09-06T03:40:59.929Z,24.93
2018-09-06T03:43:28.326Z,25.47
2018-09-06T03:45:56.564Z,24.80
2018-09-06T03:48:24.836Z,23.70
2018-09-06T03:50:52.933Z,26.40
2018-09-06T03:53:21.089Z,24.80
2018-09-06T03:55:49.284Z,26.27
2018-09-06T03:58:18.909Z,26.63
2018-09-06T04:00:46.994Z,25.70
2018-09-06T04:03:15.076Z,25.40
2018-09-06T04:05:43.141Z,26.70
2018-09-06T04:08:11.489Z,28.37
2018-09-06T04:10:39.665Z,26.30
2018-09-06T04:13:07.868Z,27.10
2018-09-06T04:15:35.941Z,27.60
2018-09-06T04:18:04.364Z,26.13
2018-09-06T04:20:32.542Z,27.87
2018-09-06T04:23:00.685Z,29.03
2018-09-06T04:25:28.831Z,26.87
2018-09-06T04:27:56.905Z,26.73
2018-09-06T04:30:24.957Z,28.00
2018-09-06T04:32:53.118Z,28.27
2018-09-06T04:35:21.229Z,28.60
2018-09-06T04:37:49.595Z,28.33
2018-09-06T04:40:17.678Z,30.00
2018-09-06T04:42:45.857Z,27.37
2018-09-06T04:45:13.935Z,28.47
2018-09-06T04:47:42.335Z,29.53
2018-09-06T04:50:10.422Z,27.40
2018-09-06T04:52:38.472Z,28.70
2018-09-06T04:55:06.580Z,30.17
2018-09-06T04:57:34.989Z,30.47
2018-09-06T05:00:03.069Z,30.33
2018-09-06T05:02:31.328Z,29.20
2018-09-06T05:04:59.406Z,29.60
2018-09-06T05:07:27.461Z,31.43
2018-09-06T05:09:55.613Z,29.43
2018-09-06T05:12:23.777Z,30.23
2018-09-06T05:14:51.902Z,32.73
2018-09-06T05:17:20.176Z,31.17
2018-09-06T05:19:48.375Z,30.50
2018-09-06T05:22:16.450Z,27.10
2018-09-06T05:24:44.665Z,30.00
2018-09-06T05:27:12.804Z,26.63
2018-09-06T05:29:40.964Z,27.50
2018-09-06T05:32:09.082Z,27.30
2018-09-06T05:34:37.192Z,26.80
2018-09-06T05:37:05.729Z,28.80
2018-09-06T05:39:33.793Z,29.00
2018-09-06T05:42:01.861Z,28.17
2018-09-06T05:44:29.973Z,28.90
2018-09-06T05:46:58.161Z,33.73
2018-09-06T05:49:26.324Z,31.77
2018-09-06T05:51:54.453Z,34.53
2018-09-06T05:54:22.652Z,32.60
2018-09-06T05:56:50.740Z,31.53
2018-09-06T05:59:18.904Z,29.87
2018-09-06T06:01:46.957Z,29.87
2018-09-06T06:04:15.044Z,32.93
2018-09-06T06:06:43.156Z,30.80
2018-09-06T06:09:11.241Z,31.63
2018-09-06T06:11:39.375Z,31.53
2018-09-06T06:14:07.762Z,30.00
2018-09-06T06:16:35.915Z,28.13
2018-09-06T06:19:04.143Z,28.10
2018-09-06T06:21:32.236Z,27.77
2018-09-06T06:24:00.320Z,29.73
2018-09-06T06:26:28.893Z,28.90
2018-09-06T06:28:57.026Z,31.23
2018-09-06T06:31:25.120Z,31.47
2018-09-06T06:33:53.215Z,29.27
2018-09-06T06:36:21.380Z,29.80
2018-09-06T06:38:49.481Z,29.50
2018-09-06T06:41:17.624Z,31.77
2018-09-06T06:43:45.842Z,31.67
2018-09-06T06:46:13.986Z,32.70
2018-09-06T06:48:42.057Z,32.73
2018-09-06T06:51:10.156Z,32.10
2018-09-06T06:53:38.329Z,34.97
2018-09-06T06:56:06.517Z,35.20
2018-09-06T06:58:34.619Z,33.57
2018-09-06T07:01:03.001Z,32.07
2018-09-06T07:03:31.235Z,32.97
2018-09-06T07:05:59.316Z,32.53
2018-09-06T07:08:27.485Z,29.90
2018-09-06T07:10:55.664Z,27.80
2018-09-06T07:13:23.741Z,26.33
2018-09-06T07:15:51.846Z,24.07
2018-09-06T07:18:20.023Z,22.67
2018-09-06T07:20:48.206Z,21.03
2018-09-06T07:23:16.407Z,20.07
2018-09-06T07:25:44.473Z,20.30
2018-09-06T07:28:12.569Z,20.17
2018-09-06T07:30:40.726Z,18.40
2018-09-06T07:33:08.980Z,19.37
2018-09-06T07:35:37.121Z,20.63
2018-09-06T07:38:05.564Z,19.33
2018-09-06T07:40:33.776Z,18.63
2018-09-06T07:43:01.983Z,17.90
2018-09-06T07:45:30.250Z,18.10
2018-09-06T07:47:58.303Z,17.97
2018-09-06T07:50:26.396Z,19.00
2018-09-06T07:52:54.541Z,18.10
2018-09-06T07:55:22.637Z,18.20
2018-09-06T07:57:50.765Z,17.10
2018-09-06T08:00:18.850Z,17.00
2018-09-06T08:02:46.908Z,17.80
2018-09-06T08:05:14.993Z,17.40
2018-09-06T08:07:43.067Z,17.47
2018-09-06T08:10:11.178Z,17.30
2018-09-06T08:12:39.265Z,18.40
2018-09-06T08:15:07.330Z,17.13
2018-09-06T08:17:35.397Z,17.20
2018-09-06T08:20:03.521Z,16.93
2018-09-06T08:22:31.605Z,17.93
2018-09-06T08:24:59.669Z,17.50
2018-09-06T08:27:27.784Z,17.80
2018-09-06T08:29:55.855Z,17.90
2018-09-06T08:32:23.937Z,18.77
2018-09-06T08:34:52.015Z,17.13
2018-09-06T08:37:20.093Z,18.73
2018-09-06T08:39:48.165Z,17.17
2018-09-06T08:42:16.252Z,16.27
2018-09-06T08:44:44.325Z,18.20
2018-09-06T08:47:12.477Z,16.57
2018-09-06T08:49:40.752Z,16.43
2018-09-06T08:52:08.945Z,16.40
2018-09-06T08:54:37.133Z,16.30
2018-09-06T08:57:05.252Z,16.57
2018-09-06T08:59:33.349Z,16.33
2018-09-06T09:02:01.472Z,17.07
2018-09-06T09:04:29.763Z,14.70
2018-09-06T09:06:58.178Z,16.10
2018-09-06T09:09:26.341Z,15.80
2018-09-06T09:11:54.417Z,15.50
2018-09-06T09:14:22.511Z,15.67
2018-09-06T09:16:50.603Z,15.13
2018-09-06T09:19:18.941Z,14.67
2018-09-06T09:21:47.526Z,15.63
2018-09-06T09:24:15.768Z,15.17
2018-09-06T09:26:43.929Z,15.00
2018-09-06T09:29:12.021Z,13.27
2018-09-06T09:31:40.140Z,13.97
2018-09-06T09:34:08.320Z,13.80
2018-09-06T09:36:36.474Z,14.00
2018-09-06T09:39:05.994Z,13.30
2018-09-06T09:41:34.303Z,13.50
2018-09-06T09:44:02.749Z,11.90
2018-09-06T09:48:58.223Z,10.93
2018-09-06T09:51:26.303Z,10.73
2018-09-06T09:53:54.636Z,11.50
2018-09-06T09:56:22.716Z,11.70
2018-09-06T09:58:50.876Z,10.47
2018-09-06T10:01:19.000Z,11.67
2018-09-06T10:03:52.511Z,11.40
2018-09-06T10:06:25.928Z,10.77
2018-09-06T10:08:59.807Z,9.90
2018-09-06T10:11:27.907Z,9.30
2018-09-06T10:13:56.126Z,9.70
2018-09-06T10:16:24.253Z,10.73
2018-09-06T10:18:52.380Z,10.57
2018-09-06T10:21:20.550Z,10.10
2018-09-06T10:23:48.641Z,9.83
2018-09-06T10:26:16.745Z,10.67
2018-09-06T10:28:45.855Z,10.13
2018-09-06T10:31:13.941Z,10.80
2018-09-06T10:33:42.050Z,10.33
2018-09-06T10:36:10.177Z,9.77
2018-09-06T10:38:38.257Z,9.53
2018-09-06T10:41:06.350Z,9.90
2018-09-06T10:43:34.453Z,9.73
2018-09-06T10:46:02.599Z,9.17
2018-09-06T10:48:30.670Z,9.80
2018-09-06T10:50:58.764Z,9.90
2018-09-06T10:53:26.909Z,9.50
2018-09-06T10:55:55.329Z,9.40
2018-09-06T10:58:23.401Z,9.27
2018-09-06T11:00:55.905Z,8.53
2018-09-06T11:03:24.050Z,8.90
2018-09-06T11:05:52.164Z,11.27
2018-09-06T11:08:20.323Z,8.80
2018-09-06T11:10:48.532Z,7.03
2018-09-06T11:13:16.778Z,7.13
2018-09-06T11:15:44.840Z,7.53
2018-09-06T11:18:12.981Z,6.00
2018-09-06T11:20:41.096Z,6.00
2018-09-06T11:23:09.181Z,6.40
2018-09-06T11:25:37.331Z,6.20
2018-09-06T11:28:05.607Z,7.07
2018-09-06T11:30:33.711Z,8.07
2018-09-06T11:33:01.836Z,8.10
2018-09-06T11:35:31.128Z,8.27
2018-09-06T11:37:59.301Z,8.17
2018-09-06T11:40:27.390Z,7.37
2018-09-06T11:42:55.700Z,8.40
2018-09-06T11:45:24.163Z,8.50
2018-09-06T11:47:52.342Z,6.93
2018-09-06T11:50:20.993Z,7.00
2018-09-06T11:52:49.543Z,6.33
2018-09-06T11:55:17.617Z,6.50
2018-09-06T11:57:45.736Z,6.30
2018-09-06T12:00:14.081Z,6.50
2018-09-06T12:02:42.413Z,6.20
2018-09-06T12:05:10.863Z,5.67
2018-09-06T12:07:39.315Z,5.20
2018-09-06T12:10:07.426Z,5.93
2018-09-06T12:12:35.513Z,6.00
2018-09-06T12:15:03.613Z,5.83
2018-09-06T12:17:32.022Z,5.90
2018-09-06T12:20:00.187Z,5.43
2018-09-06T12:22:28.997Z,5.10
2018-09-06T12:24:57.498Z,5.90
2018-09-06T12:27:25.578Z,6.13
2018-09-06T12:29:53.743Z,7.30
2018-09-06T12:32:22.291Z,5.83
2018-09-06T12:34:50.624Z,6.30
2018-09-06T12:37:18.710Z,5.67
2018-09-06T12:39:46.862Z,6.10
2018-09-06T12:42:15.024Z,6.57
2018-09-06T12:44:43.599Z,7.30
2018-09-06T12:47:11.728Z,6.97
2018-09-06T12:49:40.184Z,7.13
2018-09-06T12:52:08.520Z,6.77
2018-09-06T12:54:36.987Z,7.20
2018-09-06T12:57:05.352Z,6.40
2018-09-06T12:59:33.489Z,6.50
2018-09-06T13:02:01.637Z,7.33
2018-09-06T13:04:30.048Z,7.30
2018-09-06T13:06:58.177Z,6.90
2018-09-06T13:09:26.373Z,6.60
2018-09-06T13:11:54.474Z,6.77
2018-09-06T13:14:22.556Z,6.90
2018-09-06T13:16:50.612Z,7.30
2018-09-06T13:19:18.681Z,7.00
2018-09-06T13:21:46.902Z,7.13
2018-09-06T13:24:15.076Z,7.23
2018-09-06T13:26:43.167Z,7.67
2018-09-06T13:29:11.218Z,7.40
2018-09-06T13:31:39.466Z,7.30
2018-09-06T13:34:07.562Z,7.20
2018-09-06T13:36:35.683Z,7.47
2018-09-06T13:39:05.604Z,7.63
2018-09-06T13:41:33.770Z,8.03
2018-09-06T13:44:01.914Z,8.00
2018-09-06T13:46:30.134Z,7.50
2018-09-06T13:48:58.220Z,7.77
2018-09-06T13:51:26.425Z,8.20
2018-09-06T13:53:54.517Z,8.67
2018-09-06T13:56:22.611Z,9.63
2018-09-06T13:58:50.694Z,9.13
2018-09-06T14:01:18.884Z,10.17
2018-09-06T14:03:47.137Z,11.33
2018-09-06T14:06:15.393Z,11.33
2018-09-06T14:08:43.523Z,10.83
2018-09-06T14:11:11.733Z,11.60
2018-09-06T14:13:40.561Z,11.20
2018-09-06T14:16:08.649Z,10.37
2018-09-06T14:18:36.784Z,10.30
2018-09-06T14:21:04.929Z,11.27
2018-09-06T14:23:33.000Z,9.60
2018-09-06T14:26:01.145Z,9.70
2018-09-06T14:28:29.273Z,9.40
2018-09-06T14:30:57.397Z,9.50
2018-09-06T14:33:25.484Z,9.47
2018-09-06T14:35:53.693Z,10.07
2018-09-06T14:38:21.904Z,9.80
2018-09-06T14:40:50.050Z,10.00
2018-09-06T14:43:18.265Z,9.77
2018-09-06T14:45:46.460Z,10.07
2018-09-06T14:48:14.520Z,9.43
2018-09-06T14:50:42.666Z,10.37
2018-09-06T14:53:10.983Z,9.80
2018-09-06T14:55:39.073Z,9.73
2018-09-06T14:58:07.161Z,9.70
2018-09-06T15:00:35.270Z,9.53
2018-09-06T15:03:03.581Z,9.50
2018-09-06T15:05:31.733Z,8.70
2018-09-06T15:07:59.844Z,8.63
2018-09-06T15:10:28.156Z,7.30
2018-09-06T15:12:56.213Z,7.77
2018-09-06T15:15:24.316Z,9.07
2018-09-06T15:17:52.451Z,8.47
2018-09-06T15:20:20.867Z,10.30
2018-09-06T15:22:48.972Z,9.90
2018-09-06T15:25:17.187Z,10.40
2018-09-06T15:27:45.367Z,10.63
2018-09-06T15:30:13.461Z,11.37
2018-09-06T15:32:41.541Z,11.80
2018-09-06T15:35:09.745Z,11.93
2018-09-06T15:37:37.832Z,12.93
2018-09-06T15:40:05.946Z,11.10
2018-09-06T15:42:34.024Z,11.20
2018-09-06T15:45:02.161Z,14.07
2018-09-06T15:47:32.180Z,14.50
2018-09-06T15:50:00.613Z,15.07
2018-09-06T15:52:28.796Z,14.57
2018-09-06T15:54:56.879Z,15.30
2018-09-06T15:57:25.261Z,18.53
2018-09-06T15:59:53.446Z,16.07
2018-09-06T16:02:21.611Z,12.97
2018-09-06T16:04:50.029Z,13.00
2018-09-06T16:07:18.365Z,15.60
2018-09-06T16:09:46.716Z,15.70
2018-09-06T16:12:15.059Z,14.67
2018-09-06T16:14:43.420Z,13.10
2018-09-06T16:17:11.552Z,14.33
2018-09-06T16:19:39.643Z,12.40
2018-09-06T16:22:08.028Z,12.00
2018-09-06T16:24:36.284Z,13.03
2018-09-06T16:27:04.461Z,12.60
2018-09-06T16:29:32.573Z,13.33
2018-09-06T16:32:00.689Z,10.93
2018-09-06T16:34:28.885Z,10.80
2018-09-06T16:36:57.059Z,9.50
2018-09-06T16:39:25.734Z,9.63
2018-09-06T16:41:53.833Z,10.90
2018-09-06T16:44:21.925Z,11.40
2018-09-06T16:46:50.139Z,12.00
2018-09-06T16:49:18.308Z,12.50
2018-09-06T16:51:46.417Z,12.63
2018-09-06T16:54:14.514Z,12.50
2018-09-06T16:56:42.594Z,12.70
2018-09-06T16:59:10.840Z,11.57
2018-09-06T17:01:38.898Z,13.07
2018-09-06T17:04:07.033Z,12.50
2018-09-06T17:06:35.114Z,12.20
2018-09-06T17:09:04.294Z,12.27
2018-09-06T17:11:33.156Z,13.30
2018-09-06T17:14:01.269Z,13.60
2018-09-06T17:16:29.339Z,15.20
2018-09-06T17:18:57.456Z,12.30
2018-09-06T17:21:25.586Z,14.40
2018-09-06T17:23:54.065Z,12.83
2018-09-06T17:26:22.309Z,12.60
2018-09-06T17:28:50.401Z,11.50
2018-09-06T17:31:18.480Z,11.80
2018-09-06T17:33:46.596Z,12.47
2018-09-06T17:36:14.762Z,10.97
2018-09-06T17:38:43.013Z,10.80
2018-09-06T17:41:11.301Z,9.17
2018-09-06T17:43:39.526Z,11.50
2018-09-06T17:46:07.661Z,12.57
2018-09-06T17:48:35.767Z,12.37
2018-09-06T17:51:04.010Z,12.10
2018-09-06T17:53:32.180Z,13.97
2018-09-06T17:56:00.380Z,14.07
2018-09-06T17:58:28.700Z,15.87
2018-09-06T18:01:02.524Z,14.83
2018-09-06T18:03:31.020Z,16.23
2018-09-06T18:05:59.300Z,16.20
2018-09-06T18:08:27.399Z,16.80
2018-09-06T18:10:55.526Z,17.83
2018-09-06T18:13:23.778Z,20.73
2018-09-06T18:15:52.080Z,19.13
2018-09-06T18:18:20.301Z,19.00
2018-09-06T18:20:48.409Z,18.73
2018-09-06T18:23:16.473Z,19.47
2018-09-06T18:25:44.607Z,19.83
2018-09-06T18:28:12.781Z,19.77
2018-09-06T18:30:41.342Z,21.23
2018-09-06T18:33:09.553Z,20.80
2018-09-06T18:35:37.679Z,23.83
2018-09-06T18:38:05.809Z,23.47
2018-09-06T18:40:33.893Z,25.33
2018-09-06T18:43:02.129Z,23.53
2018-09-06T18:45:30.272Z,24.33
2018-09-06T18:47:58.460Z,23.90
2018-09-06T18:50:26.582Z,23.57
2018-09-06T18:52:54.760Z,23.07
2018-09-06T18:55:23.313Z,24.63
2018-09-06T18:57:51.649Z,21.70
2018-09-06T19:00:19.758Z,24.00
2018-09-06T19:02:47.945Z,23.70
2018-09-06T19:05:16.084Z,23.70
2018-09-06T19:07:44.391Z,24.40
2018-09-06T19:10:12.619Z,26.10
2018-09-06T19:12:40.706Z,25.30
2018-09-06T19:15:08.851Z,25.00
2018-09-06T19:17:37.102Z,24.30
2018-09-06T19:20:05.278Z,24.30
2018-09-06T19:22:33.661Z,26.37
2018-09-06T19:25:02.345Z,27.53
2018-09-06T19:27:30.552Z,27.90
2018-09-06T19:29:58.788Z,25.63
2018-09-06T19:32:26.928Z,27.93
2018-09-06T19:34:55.006Z,26.83
2018-09-06T19:37:23.162Z,26.47
2018-09-06T19:39:51.293Z,27.40
2018-09-06T19:42:19.633Z,24.80
2018-09-06T19:44:47.789Z,28.83
2018-09-06T19:47:15.958Z,28.80
2018-09-06T19:49:44.142Z,28.30
2018-09-06T19:52:12.229Z,27.70
2018-09-06T19:54:40.345Z,27.07
2018-09-06T19:57:08.925Z,29.27
2018-09-06T19:59:37.344Z,29.90
2018-09-06T20:02:05.545Z,29.63
2018-09-06T20:04:33.797Z,29.50
2018-09-06T20:07:01.944Z,31.40
2018-09-06T20:09:30.036Z,31.90
2018-09-06T20:11:58.204Z,29.87
2018-09-06T20:14:26.310Z,30.47
2018-09-06T20:16:54.405Z,32.20
2018-09-06T20:19:22.654Z,31.43
2018-09-06T20:21:51.402Z,32.77
2018-09-06T20:24:19.518Z,32.87
2018-09-06T20:26:47.617Z,34.80
2018-09-06T20:29:15.689Z,34.60
2018-09-06T20:31:43.934Z,34.33
2018-09-06T20:34:12.080Z,35.23
2018-09-06T20:36:40.178Z,32.33
2018-09-06T20:39:09.082Z,33.87
2018-09-06T20:41:37.440Z,36.30
2018-09-06T20:44:05.661Z,34.67
2018-09-06T20:46:33.792Z,35.00
2018-09-06T20:49:01.886Z,34.67
2018-09-06T20:51:30.096Z,35.90
2018-09-06T20:53:58.277Z,34.70
2018-09-06T20:56:26.348Z,33.03
2018-09-06T20:58:54.555Z,32.20
2018-09-06T21:01:23.022Z,35.37
2018-09-06T21:03:51.151Z,33.00
2018-09-06T21:06:19.236Z,34.67
2018-09-06T21:08:47.459Z,34.27
2018-09-06T21:11:15.576Z,32.57
2018-09-06T21:13:43.678Z,32.20
2018-09-06T21:16:11.762Z,32.97
2018-09-06T21:18:39.865Z,31.57
2018-09-06T21:21:08.291Z,31.30
2018-09-06T21:23:36.436Z,32.03
2018-09-06T21:26:04.953Z,30.20
2018-09-06T21:28:33.044Z,31.60
2018-09-06T21:31:01.121Z,31.67
2018-09-06T21:33:29.210Z,31.97
2018-09-06T21:35:57.301Z,33.73
2018-09-06T21:38:25.410Z,32.87
2018-09-06T21:40:53.804Z,34.97
2018-09-06T21:43:22.063Z,36.30
2018-09-06T21:45:50.165Z,33.77
2018-09-06T21:48:18.350Z,31.87
2018-09-06T21:50:46.445Z,29.40
2018-09-06T21:53:14.568Z,29.23
2018-09-06T21:55:42.645Z,28.50
2018-09-06T21:58:10.700Z,29.40
2018-09-06T22:00:39.120Z,29.67
2018-09-06T22:03:12.663Z,30.87
2018-09-06T22:05:40.773Z,30.00
2018-09-06T22:08:08.963Z,29.27
2018-09-06T22:10:37.157Z,28.27
2018-09-06T22:13:05.265Z,30.30
2018-09-06T22:15:33.512Z,27.50
2018-09-06T22:18:01.577Z,26.30
2018-09-06T22:20:29.728Z,26.50
2018-09-06T22:22:57.962Z,26.10
2018-09-06T22:25:26.097Z,26.03
2018-09-06T22:27:54.192Z,25.03
2018-09-06T22:30:22.452Z,27.27
2018-09-06T22:32:50.653Z,28.00
2018-09-06T22:35:18.713Z,25.63
2018-09-06T22:37:46.802Z,24.50
2018-09-06T22:40:14.937Z,22.57
2018-09-06T22:42:43.123Z,25.20
2018-09-06T22:45:11.195Z,23.57
2018-09-06T22:47:39.270Z,21.17
2018-09-06T22:50:07.456Z,21.33
2018-09-06T22:52:35.893Z,21.60
2018-09-06T22:55:04.170Z,24.17
2018-09-06T22:57:32.676Z,21.40
2018-09-06T23:00:00.774Z,21.27
2018-09-06T23:02:34.841Z,19.57
2018-09-06T23:05:02.923Z,20.67
2018-09-06T23:07:31.122Z,19.53
2018-09-06T23:09:59.210Z,20.27
2018-09-06T23:12:27.377Z,20.97
2018-09-06T23:14:55.622Z,22.20
2018-09-06T23:17:23.822Z,22.37
2018-09-06T23:19:51.903Z,21.23
2018-09-06T23:22:20.044Z,20.53
2018-09-06T23:24:48.201Z,21.63
2018-09-06T23:27:16.308Z,21.90
2018-09-06T23:29:44.361Z,21.33
2018-09-06T23:32:12.607Z,20.40
2018-09-06T23:34:40.678Z,16.13
2018-09-06T23:37:08.758Z,18.77
2018-09-06T23:39:36.881Z,20.00
2018-09-06T23:42:05.021Z,19.23
2018-09-06T23:44:33.175Z,18.10
2018-09-06T23:47:01.404Z,18.97
2018-09-06T23:49:29.452Z,19.53
2018-09-06T23:51:57.576Z,18.60
2018-09-06T23:54:25.727Z,19.53
2018-09-06T23:56:53.904Z,18.63
2018-09-06T23:59:21.991Z,19.97
